createdAt,value
2018-04-10T00:00:07.470Z,70.15
2018-04-10T00:02:36.373Z,70.40
2018-04-10T00:05:05.560Z,71.03
2018-04-10T00:07:34.982Z,71.17
2018-04-10T00:10:09.060Z,70.78
2018-04-10T00:12:39.213Z,70.45
2018-04-10T00:15:07.617Z,70.72
2018-04-10T00:17:37.468Z,71.24
2018-04-10T00:20:06.218Z,71.02
2018-04-10T00:22:34.801Z,71.66
2018-04-10T00:25:03.145Z,71.70
2018-04-10T00:27:31.475Z,72.02
2018-04-10T00:30:00.465Z,72.12
2018-04-10T00:32:29.142Z,71.43
2018-04-10T00:34:57.845Z,71.15
2018-04-10T00:37:26.585Z,70.96
2018-04-10T00:39:54.929Z,70.95
2018-04-10T00:42:23.565Z,70.81
2018-04-10T00:44:51.827Z,70.88
2018-04-10T00:47:20.333Z,71.13
2018-04-10T00:49:52.641Z,71.23
2018-04-10T00:52:21.381Z,71.32
2018-04-10T00:54:49.816Z,70.02
2018-04-10T00:57:18.237Z,70.49
2018-04-10T00:59:47.139Z,70.12
2018-04-10T01:02:15.981Z,69.84
2018-04-10T01:04:44.333Z,69.90
2018-04-10T01:07:13.137Z,69.55
2018-04-10T01:09:42.005Z,69.66
2018-04-10T01:12:10.790Z,69.55
2018-04-10T01:14:39.569Z,69.26
2018-04-10T01:17:08.382Z,69.32
2018-04-10T01:19:37.501Z,70.02
2018-04-10T01:22:05.987Z,70.65
2018-04-10T01:24:34.617Z,70.39
2018-04-10T01:27:03.538Z,70.38
2018-04-10T01:29:33.150Z,70.69
2018-04-10T01:32:03.035Z,70.61
2018-04-10T01:34:31.293Z,70.40
2018-04-10T01:37:00.432Z,70.70
2018-04-10T01:39:29.086Z,70.58
2018-04-10T01:41:57.783Z,70.97
2018-04-10T01:44:26.312Z,70.28
2018-04-10T01:46:55.207Z,70.64
2018-04-10T01:49:23.909Z,70.35
2018-04-10T01:51:54.019Z,70.13
2018-04-10T01:54:22.536Z,70.22
2018-04-10T01:56:50.809Z,70.93
2018-04-10T01:59:19.365Z,70.79
2018-04-10T02:01:48.025Z,70.34
2018-04-10T02:04:16.485Z,70.34
2018-04-10T02:06:45.006Z,70.64
2018-04-10T02:09:14.330Z,70.43
2018-04-10T02:11:42.950Z,70.18
2018-04-10T02:14:11.303Z,70.57
2018-04-10T02:16:40.021Z,70.84
2018-04-10T02:19:08.985Z,69.79
2018-04-10T02:21:37.369Z,69.71
2018-04-10T02:24:06.069Z,69.58
2018-04-10T02:26:35.068Z,70.03
2018-04-10T02:29:03.721Z,69.36
2018-04-10T02:31:32.317Z,69.33
2018-04-10T02:34:01.550Z,69.67
2018-04-10T02:36:33.171Z,69.82
2018-04-10T02:39:02.046Z,69.07
2018-04-10T02:41:31.165Z,68.99
2018-04-10T02:44:00.371Z,69.40
2018-04-10T02:46:29.888Z,70.23
2018-04-10T02:48:59.364Z,69.03
2018-04-10T02:51:28.435Z,69.54
2018-04-10T02:53:57.649Z,69.83
2018-04-10T02:56:26.830Z,69.50
2018-04-10T02:58:56.366Z,69.06
2018-04-10T03:01:25.261Z,69.76
2018-04-10T03:03:54.165Z,70.08
2018-04-10T03:06:23.091Z,70.30
2018-04-10T03:08:52.073Z,70.01
2018-04-10T03:11:21.433Z,70.52
2018-04-10T03:13:51.166Z,70.08
2018-04-10T03:16:19.969Z,70.67
2018-04-10T03:18:48.739Z,70.41
2018-04-10T03:21:17.318Z,71.06
2018-04-10T03:23:46.275Z,71.08
2018-04-10T03:26:15.270Z,71.27
2018-04-10T03:28:44.881Z,71.55
2018-04-10T03:31:13.823Z,71.76
2018-04-10T03:33:43.046Z,72.30
2018-04-10T03:36:12.107Z,72.08
2018-04-10T03:38:41.035Z,72.44
2018-04-10T03:41:10.111Z,72.43
2018-04-10T03:43:38.614Z,71.38
2018-04-10T03:46:07.610Z,71.72
2018-04-10T03:48:36.778Z,72.24
2018-04-10T03:51:05.383Z,72.23
2018-04-10T03:53:33.742Z,71.50
2018-04-10T03:56:02.595Z,71.78
2018-04-10T03:58:31.370Z,72.02
2018-04-10T04:03:55.874Z,71.78
2018-04-10T04:06:24.272Z,72.30
2018-04-10T04:08:52.951Z,72.91
2018-04-10T04:11:21.535Z,72.73
2018-04-10T04:13:50.222Z,72.24
2018-04-10T04:16:27.605Z,72.77
2018-04-10T04:21:10.376Z,72.37
2018-04-10T04:23:38.726Z,73.04
2018-04-10T04:26:07.320Z,72.79
2018-04-10T04:28:36.143Z,73.17
2018-04-10T04:31:04.654Z,73.12
2018-04-10T04:33:33.458Z,73.37
2018-04-10T04:36:02.437Z,73.41
2018-04-10T04:38:31.737Z,73.29
2018-04-10T04:41:00.635Z,72.34
2018-04-10T04:43:29.085Z,72.28
2018-04-10T04:45:57.829Z,72.18
2018-04-10T04:48:26.605Z,72.71
2018-04-10T04:50:55.757Z,72.33
2018-04-10T04:53:24.703Z,72.43
2018-04-10T04:55:53.632Z,72.52
2018-04-10T04:58:22.924Z,71.91
2018-04-10T05:00:51.770Z,72.45
2018-04-10T05:03:21.805Z,71.74
2018-04-10T05:05:51.630Z,71.70
2018-04-10T05:08:22.443Z,71.32
2018-04-10T05:10:51.314Z,70.89
2018-04-10T05:13:20.027Z,70.59
2018-04-10T05:15:50.288Z,71.51
2018-04-10T05:18:20.599Z,70.81
2018-04-10T05:20:51.485Z,70.49
2018-04-10T05:23:22.726Z,71.07
2018-04-10T05:25:52.980Z,70.70
2018-04-10T05:28:22.870Z,71.06
2018-04-10T05:30:51.605Z,70.39
2018-04-10T05:33:21.397Z,70.38
2018-04-10T05:35:50.429Z,70.30
2018-04-10T05:38:19.473Z,69.77
2018-04-10T05:40:48.641Z,70.02
2018-04-10T05:43:19.773Z,68.87
2018-04-10T05:45:49.641Z,68.97
2018-04-10T05:48:18.800Z,68.89
2018-04-10T05:50:48.157Z,68.45
2018-04-10T05:53:16.642Z,68.09
2018-04-10T05:55:45.635Z,67.52
2018-04-10T05:58:14.617Z,67.58
2018-04-10T06:00:43.717Z,67.34
2018-04-10T06:03:12.367Z,66.86
2018-04-10T06:05:40.750Z,66.57
2018-04-10T06:08:10.300Z,66.89
2018-04-10T06:10:39.357Z,66.27
2018-04-10T06:13:07.663Z,65.60
2018-04-10T06:15:36.702Z,65.79
2018-04-10T06:18:05.747Z,65.77
2018-04-10T06:20:34.285Z,65.12
2018-04-10T06:23:03.374Z,64.59
2018-04-10T06:25:32.346Z,64.42
2018-04-10T06:28:00.885Z,64.56
2018-04-10T06:30:29.614Z,64.11
2018-04-10T06:32:58.626Z,63.65
2018-04-10T06:35:27.114Z,62.92
2018-04-10T06:37:56.146Z,63.09
2018-04-10T06:40:24.762Z,63.13
2018-04-10T06:42:53.061Z,62.26
2018-04-10T06:45:21.480Z,62.37
2018-04-10T06:47:49.993Z,62.08
2018-04-10T06:50:18.680Z,61.69
2018-04-10T06:52:47.030Z,61.88
2018-04-10T06:55:16.010Z,61.54
2018-04-10T06:57:44.653Z,60.94
2018-04-10T07:00:13.441Z,60.57
2018-04-10T07:02:42.406Z,60.47
2018-04-10T07:05:11.277Z,60.42
2018-04-10T07:07:39.987Z,60.11
2018-04-10T07:10:08.563Z,59.24
2018-04-10T07:12:36.978Z,59.05
2018-04-10T07:15:05.807Z,59.03
2018-04-10T07:17:34.594Z,58.84
2018-04-10T07:20:03.114Z,58.50
2018-04-10T07:22:31.584Z,57.99
2018-04-10T07:25:00.082Z,58.14
2018-04-10T07:27:28.713Z,57.23
2018-04-10T07:29:57.590Z,57.28
2018-04-10T07:32:26.543Z,57.45
2018-04-10T07:34:55.423Z,56.37
2018-04-10T07:37:23.867Z,56.59
2018-04-10T07:39:52.545Z,55.89
2018-04-10T07:42:20.971Z,55.74
2018-04-10T07:44:49.294Z,55.69
2018-04-10T07:47:17.618Z,54.83
2018-04-10T07:49:45.961Z,55.01
2018-04-10T07:52:14.674Z,54.80
2018-04-10T07:54:43.204Z,54.70
2018-04-10T07:57:11.958Z,54.59
2018-04-10T07:59:40.569Z,53.95
2018-04-10T08:02:09.262Z,53.44
2018-04-10T08:04:38.463Z,52.86
2018-04-10T08:07:07.073Z,53.07
2018-04-10T08:09:35.679Z,53.29
2018-04-10T08:12:04.519Z,52.56
2018-04-10T08:14:33.351Z,52.15
2018-04-10T08:17:02.204Z,51.62
2018-04-10T08:19:30.851Z,50.86
2018-04-10T08:21:59.626Z,50.97
2018-04-10T08:24:28.602Z,51.02
2018-04-10T08:26:57.530Z,50.65
2018-04-10T08:29:25.778Z,50.96
2018-04-10T08:31:54.268Z,50.70
2018-04-10T08:34:22.824Z,50.09
2018-04-10T08:36:51.166Z,50.55
2018-04-10T08:39:19.775Z,49.67
2018-04-10T08:41:48.065Z,49.56
2018-04-10T08:44:16.618Z,49.25
2018-04-10T08:46:45.658Z,49.12
2018-04-10T08:49:14.066Z,48.26
2018-04-10T08:51:42.521Z,48.42
2018-04-10T08:54:11.266Z,47.99
2018-04-10T08:56:39.970Z,48.82
2018-04-10T08:59:10.592Z,48.88
2018-04-10T09:01:39.736Z,48.61
2018-04-10T09:04:08.462Z,48.34
2018-04-10T09:06:37.240Z,48.84
2018-04-10T09:09:06.975Z,48.36
2018-04-10T09:11:35.345Z,47.26
2018-04-10T09:14:04.342Z,47.70
2018-04-10T09:16:32.682Z,47.34
2018-04-10T09:19:01.345Z,47.25
2018-04-10T09:21:29.740Z,47.69
2018-04-10T09:23:58.435Z,46.37
2018-04-10T09:26:27.174Z,45.80
2018-04-10T09:28:55.765Z,45.91
2018-04-10T09:31:24.346Z,46.52
2018-04-10T09:33:53.293Z,46.09
2018-04-10T09:36:23.153Z,44.81
2018-04-10T09:38:51.694Z,45.24
2018-04-10T09:41:20.239Z,45.49
2018-04-10T09:43:48.831Z,45.26
2018-04-10T09:46:17.778Z,45.77
2018-04-10T09:48:46.440Z,45.50
2018-04-10T09:51:14.784Z,45.28
2018-04-10T09:53:43.393Z,45.29
2018-04-10T09:56:12.039Z,45.76
2018-04-10T09:58:40.738Z,44.39
2018-04-10T10:01:09.181Z,44.60
2018-04-10T10:03:37.974Z,44.37
2018-04-10T10:06:06.310Z,44.22
2018-04-10T10:08:35.369Z,44.44
2018-04-10T10:11:03.862Z,43.44
2018-04-10T10:13:32.507Z,44.68
2018-04-10T10:16:00.863Z,43.05
2018-04-10T10:18:29.233Z,43.46
2018-04-10T10:20:59.238Z,43.11
2018-04-10T10:23:28.127Z,42.57
2018-04-10T10:25:56.644Z,42.46
2018-04-10T10:28:25.521Z,41.60
2018-04-10T10:30:53.996Z,41.01
2018-04-10T10:33:22.395Z,41.60
2018-04-10T10:35:51.154Z,41.99
2018-04-10T10:38:19.918Z,41.08
2018-04-10T10:40:48.654Z,39.57
2018-04-10T10:43:17.172Z,39.64
2018-04-10T10:45:45.971Z,38.11
2018-04-10T10:48:14.528Z,39.38
2018-04-10T10:50:43.015Z,38.84
2018-04-10T10:53:11.568Z,38.05
2018-04-10T10:55:40.321Z,37.52
2018-04-10T10:58:08.878Z,37.14
2018-04-10T11:00:37.431Z,36.32
2018-04-10T11:03:07.042Z,35.92
2018-04-10T11:05:35.337Z,35.44
2018-04-10T11:08:03.854Z,35.01
2018-04-10T11:10:35.605Z,34.16
2018-04-10T11:13:04.119Z,33.45
2018-04-10T11:15:32.489Z,33.43
2018-04-10T11:18:01.278Z,35.53
2018-04-10T11:20:29.998Z,33.44
2018-04-10T11:22:58.659Z,33.42
2018-04-10T11:25:27.026Z,33.68
2018-04-10T11:27:55.742Z,33.75
2018-04-10T11:30:24.218Z,33.11
2018-04-10T11:32:53.281Z,32.41
2018-04-10T11:35:21.826Z,32.65
2018-04-10T11:37:50.641Z,30.34
2018-04-10T11:40:19.055Z,31.37
2018-04-10T11:42:47.842Z,31.32
2018-04-10T11:45:16.634Z,32.38
2018-04-10T11:47:45.425Z,32.24
2018-04-10T11:50:13.802Z,32.69
2018-04-10T11:52:42.227Z,29.34
2018-04-10T11:55:10.879Z,29.91
2018-04-10T11:57:39.495Z,29.40
2018-04-10T12:00:08.279Z,30.12
2018-04-10T12:02:37.150Z,29.86
2018-04-10T12:05:06.078Z,28.17
2018-04-10T12:07:34.770Z,28.00
2018-04-10T12:10:03.661Z,29.04
2018-04-10T12:12:32.566Z,28.47
2018-04-10T12:15:01.437Z,27.88
2018-04-10T12:17:30.198Z,26.66
2018-04-10T12:19:58.835Z,29.64
2018-04-10T12:22:27.663Z,25.37
2018-04-10T12:24:56.016Z,26.14
2018-04-10T12:27:24.807Z,27.13
2018-04-10T12:29:53.321Z,24.29
2018-04-10T12:32:22.101Z,26.39
2018-04-10T12:34:50.425Z,25.61
2018-04-10T12:37:19.396Z,24.90
2018-04-10T12:39:48.241Z,26.30
2018-04-10T12:42:16.733Z,24.64
2018-04-10T12:44:45.254Z,24.90
2018-04-10T12:47:14.004Z,25.01
2018-04-10T12:49:42.261Z,25.70
2018-04-10T12:52:10.756Z,24.86
2018-04-10T12:54:39.385Z,23.13
2018-04-10T12:57:07.709Z,23.99
2018-04-10T12:59:36.083Z,24.69
2018-04-10T13:02:04.550Z,22.96
2018-04-10T13:04:33.506Z,21.21
2018-04-10T13:07:01.902Z,21.99
2018-04-10T13:09:30.288Z,22.72
2018-04-10T13:11:58.774Z,22.50
2018-04-10T13:14:27.467Z,23.23
2018-04-10T13:16:55.893Z,21.67
2018-04-10T13:19:24.766Z,22.38
2018-04-10T13:21:53.465Z,21.09
2018-04-10T13:24:21.905Z,22.18
2018-04-10T13:26:50.729Z,22.59
2018-04-10T13:29:19.209Z,21.41
2018-04-10T13:31:47.662Z,19.70
2018-04-10T13:34:16.028Z,20.54
2018-04-10T13:36:44.359Z,23.03
2018-04-10T13:39:13.090Z,21.60
2018-04-10T13:41:41.600Z,21.40
2018-04-10T13:44:10.866Z,21.52
2018-04-10T13:46:39.685Z,21.21
2018-04-10T13:49:08.755Z,20.07
2018-04-10T13:51:37.545Z,21.08
2018-04-10T13:54:06.278Z,24.35
2018-04-10T13:56:34.989Z,25.81
2018-04-10T13:59:03.732Z,24.55
2018-04-10T14:01:32.153Z,23.75
2018-04-10T14:04:00.519Z,27.05
2018-04-10T14:06:28.854Z,25.41
2018-04-10T14:08:57.150Z,25.49
2018-04-10T14:11:25.449Z,26.48
2018-04-10T14:13:54.521Z,27.42
2018-04-10T14:16:23.254Z,25.83
2018-04-10T14:20:06.046Z,24.69
2018-04-10T14:22:34.369Z,32.79
2018-04-10T14:25:02.877Z,33.15
2018-04-10T14:27:31.630Z,33.86
2018-04-10T14:30:00.707Z,34.35
2018-04-10T14:32:29.376Z,36.28
2018-04-10T14:34:58.118Z,35.15
2018-04-10T14:37:26.674Z,35.63
2018-04-10T14:39:55.006Z,36.04
2018-04-10T14:42:23.888Z,36.52
2018-04-10T14:44:53.026Z,37.01
2018-04-10T14:47:21.799Z,37.00
2018-04-10T14:49:50.226Z,36.28
2018-04-10T14:52:18.558Z,35.98
2018-04-10T14:54:47.181Z,37.25
2018-04-10T14:57:15.693Z,37.93
2018-04-10T14:59:44.382Z,37.85
2018-04-10T15:02:13.037Z,38.19
2018-04-10T15:04:41.517Z,38.08
2018-04-10T15:07:09.913Z,36.95
2018-04-10T15:09:38.682Z,36.78
2018-04-10T15:12:07.317Z,35.29
2018-04-10T15:14:36.436Z,35.16
2018-04-10T15:17:05.267Z,34.62
2018-04-10T15:19:33.816Z,34.63
2018-04-10T15:22:02.132Z,33.99
2018-04-10T15:24:30.750Z,34.55
2018-04-10T15:26:59.514Z,35.54
2018-04-10T15:29:27.774Z,35.88
2018-04-10T15:31:56.533Z,36.32
2018-04-10T15:34:25.286Z,36.77
2018-04-10T15:36:53.781Z,36.14
2018-04-10T15:39:22.317Z,36.90
2018-04-10T15:41:51.080Z,36.74
2018-04-10T15:44:20.225Z,36.90
2018-04-10T15:46:48.594Z,37.04
2018-04-10T15:49:16.998Z,37.07
2018-04-10T15:51:45.374Z,37.12
2018-04-10T15:54:14.213Z,37.63
2018-04-10T15:56:42.782Z,37.21
2018-04-10T15:59:12.599Z,37.57
2018-04-10T16:01:41.142Z,38.33
2018-04-10T16:04:11.442Z,38.36
2018-04-10T16:06:41.875Z,38.50
2018-04-10T16:09:10.428Z,38.13
2018-04-10T16:11:38.778Z,38.38
2018-04-10T16:14:07.089Z,37.72
2018-04-10T16:16:35.896Z,36.21
2018-04-10T16:19:04.759Z,35.53
2018-04-10T16:21:33.418Z,34.29
2018-04-10T16:24:02.064Z,33.71
2018-04-10T16:26:30.474Z,32.88
2018-04-10T16:28:58.979Z,32.28
2018-04-10T16:31:27.823Z,31.57
2018-04-10T16:33:56.586Z,31.38
2018-04-10T16:36:25.042Z,31.32
2018-04-10T16:38:53.561Z,31.48
2018-04-10T16:41:22.009Z,31.25
2018-04-10T16:43:50.986Z,31.57
2018-04-10T16:46:19.873Z,31.23
2018-04-10T16:48:48.173Z,31.05
2018-04-10T16:51:16.956Z,30.30
2018-04-10T16:53:45.989Z,30.82
2018-04-10T16:56:14.769Z,31.33
2018-04-10T16:58:43.062Z,31.18
2018-04-10T17:01:11.560Z,31.64
2018-04-10T17:03:40.172Z,32.22
2018-04-10T17:06:09.035Z,32.30
2018-04-10T17:08:37.357Z,32.57
2018-04-10T17:11:05.775Z,32.92
2018-04-10T17:13:34.242Z,33.04
2018-04-10T17:16:03.055Z,33.25
2018-04-10T17:18:31.952Z,33.51
2018-04-10T17:21:00.474Z,34.00
2018-04-10T17:23:30.329Z,34.04
2018-04-10T17:25:59.898Z,34.33
2018-04-10T17:28:28.364Z,34.60
2018-04-10T17:30:58.612Z,34.78
2018-04-10T17:33:27.096Z,34.67
2018-04-10T17:35:55.874Z,34.78
2018-04-10T17:38:26.015Z,34.71
2018-04-10T17:40:55.891Z,35.74
2018-04-10T17:43:25.617Z,35.27
2018-04-10T17:45:54.733Z,35.46
2018-04-10T17:48:23.581Z,35.96
2018-04-10T17:50:53.286Z,35.94
2018-04-10T17:53:23.707Z,36.25
2018-04-10T17:55:52.714Z,36.16
2018-04-10T17:58:21.435Z,36.59
2018-04-10T18:00:50.773Z,37.10
2018-04-10T18:03:19.541Z,37.46
2018-04-10T18:05:48.407Z,37.00
2018-04-10T18:08:17.018Z,36.96
2018-04-10T18:10:45.733Z,36.81
2018-04-10T18:13:14.470Z,36.81
2018-04-10T18:15:43.504Z,36.83
2018-04-10T18:18:12.821Z,37.54
2018-04-10T18:20:41.174Z,36.87
2018-04-10T18:23:09.713Z,37.22
2018-04-10T18:25:38.737Z,37.09
2018-04-10T18:28:07.056Z,37.48
2018-04-10T18:30:35.482Z,37.46
2018-04-10T18:33:04.138Z,37.60
2018-04-10T18:35:32.699Z,37.06
2018-04-10T18:38:01.118Z,36.32
2018-04-10T18:40:29.607Z,37.52
2018-04-10T18:42:57.923Z,36.68
2018-04-10T18:45:26.937Z,36.24
2018-04-10T18:47:55.339Z,37.41
2018-04-10T18:50:23.945Z,36.85
2018-04-10T18:52:52.318Z,36.75
2018-04-10T18:55:21.149Z,37.47
2018-04-10T18:57:49.578Z,37.04
2018-04-10T19:00:18.122Z,36.80
2018-04-10T19:02:46.788Z,36.63
2018-04-10T19:05:15.705Z,36.67
2018-04-10T19:07:46.914Z,36.84
2018-04-10T19:10:16.185Z,38.36
2018-04-10T19:12:45.010Z,38.41
2018-04-10T19:15:13.601Z,38.22
2018-04-10T19:17:41.893Z,39.19
2018-04-10T19:20:10.641Z,41.40
2018-04-10T19:22:39.062Z,43.29
2018-04-10T19:25:07.886Z,45.45
2018-04-10T19:27:36.218Z,47.19
2018-04-10T19:30:07.331Z,49.08
2018-04-10T19:32:37.015Z,50.31
2018-04-10T19:35:06.246Z,51.37
2018-04-10T19:37:34.692Z,54.53
2018-04-10T19:40:03.056Z,56.08
2018-04-10T19:42:31.966Z,57.58
2018-04-10T19:45:01.010Z,58.52
2018-04-10T19:47:29.929Z,59.08
2018-04-10T19:49:58.591Z,59.86
2018-04-10T19:52:27.679Z,60.18
2018-04-10T19:54:57.170Z,60.68
2018-04-10T19:57:25.706Z,60.96
2018-04-10T19:59:54.339Z,61.11
2018-04-10T20:02:22.973Z,61.43
2018-04-10T20:04:51.585Z,61.95
2018-04-10T20:07:20.387Z,62.41
2018-04-10T20:09:49.614Z,62.65
2018-04-10T20:12:18.867Z,62.93
2018-04-10T20:14:47.803Z,62.80
2018-04-10T20:17:16.330Z,63.06
2018-04-10T20:19:44.966Z,63.55
2018-04-10T20:22:14.080Z,63.62
2018-04-10T20:27:10.262Z,63.67
2018-04-10T20:29:38.921Z,63.90
2018-04-10T20:32:07.566Z,63.89
2018-04-10T20:34:36.346Z,64.22
2018-04-10T20:37:05.281Z,64.69
2018-04-10T20:39:34.062Z,64.82
2018-04-10T20:42:02.588Z,65.12
2018-04-10T20:44:31.391Z,65.68
2018-04-10T20:47:00.815Z,65.36
2018-04-10T20:49:29.552Z,65.31
2018-04-10T20:52:00.262Z,65.44
2018-04-10T20:54:29.225Z,65.50
2018-04-10T20:56:58.521Z,65.82
2018-04-10T20:59:27.570Z,65.48
